createdAt,value
2023-05-11T00:00:31.971Z,0.87
2023-05-11T00:02:59.041Z,1.30
2023-05-11T00:05:25.987Z,1.00
2023-05-11T00:07:55.566Z,1.20
2023-05-11T00:10:23.011Z,1.73
2023-05-11T00:12:51.121Z,1.50
2023-05-11T00:15:18.034Z,1.03
2023-05-11T00:17:44.933Z,0.90
2023-05-11T00:20:11.979Z,1.07
2023-05-11T00:22:38.899Z,0.93
2023-05-11T00:25:09.563Z,0.80
2023-05-11T00:27:36.475Z,1.00
2023-05-11T00:30:03.618Z,0.90
2023-05-11T00:32:30.534Z,1.17
2023-05-11T00:34:57.512Z,0.93
2023-05-11T00:37:26.009Z,0.97
2023-05-11T00:39:53.182Z,0.87
2023-05-11T00:42:22.710Z,1.00
2023-05-11T00:44:49.615Z,0.90
2023-05-11T00:47:16.607Z,1.00
2023-05-11T00:49:43.806Z,1.00
2023-05-11T00:52:10.798Z,1.00
2023-05-11T00:54:37.730Z,1.00
2023-05-11T00:57:04.861Z,0.90
2023-05-11T00:59:35.111Z,1.00
2023-05-11T01:02:03.514Z,1.10
2023-05-11T01:04:31.125Z,1.00
2023-05-11T01:07:06.988Z,1.00
2023-05-11T01:09:45.260Z,0.87
2023-05-11T01:12:25.882Z,0.90
2023-05-11T01:15:05.619Z,0.90
2023-05-11T01:17:41.637Z,1.00
2023-05-11T01:20:12.956Z,0.90
2023-05-11T01:22:52.845Z,1.00
2023-05-11T01:25:33.018Z,1.00
2023-05-11T01:28:31.263Z,0.77
2023-05-11T01:31:06.214Z,1.10
2023-05-11T01:33:35.286Z,0.93
2023-05-11T01:36:06.362Z,0.90
2023-05-11T01:38:40.318Z,0.83
2023-05-11T01:41:13.480Z,0.70
2023-05-11T01:43:41.111Z,0.90
2023-05-11T01:46:12.566Z,0.90
2023-05-11T01:48:44.385Z,0.77
2023-05-11T01:51:11.834Z,0.70
2023-05-11T01:53:41.244Z,0.97
2023-05-11T01:56:09.651Z,0.87
2023-05-11T01:58:38.916Z,1.10
2023-05-11T02:01:06.807Z,1.13
2023-05-11T02:03:37.905Z,0.83
2023-05-11T02:06:06.619Z,0.83
2023-05-11T02:08:34.206Z,0.77
2023-05-11T02:11:03.129Z,0.90
2023-05-11T02:13:30.735Z,0.77
2023-05-11T02:15:58.727Z,1.00
2023-05-11T02:18:26.532Z,0.83
2023-05-11T02:20:58.165Z,0.80
2023-05-11T02:23:26.965Z,0.90
2023-05-11T02:25:54.879Z,0.87
2023-05-11T02:28:21.864Z,1.13
2023-05-11T02:30:52.608Z,1.00
2023-05-11T02:33:21.932Z,1.00
2023-05-11T02:35:50.140Z,0.80
2023-05-11T02:38:21.074Z,0.90
2023-05-11T02:40:51.527Z,1.00
2023-05-11T02:43:23.125Z,1.20
2023-05-11T02:45:53.892Z,0.80
2023-05-11T02:48:25.154Z,1.00
2023-05-11T02:50:53.433Z,1.20
2023-05-11T02:53:27.819Z,0.87
2023-05-11T02:55:55.619Z,1.10
2023-05-11T02:58:23.016Z,1.10
2023-05-11T03:00:50.753Z,1.00
2023-05-11T03:03:17.829Z,0.90
2023-05-11T03:05:44.771Z,1.00
2023-05-11T03:08:11.756Z,0.90
2023-05-11T03:10:42.483Z,1.03
2023-05-11T03:13:10.004Z,1.10
2023-05-11T03:15:37.990Z,1.73
2023-05-11T03:18:06.738Z,1.00
2023-05-11T03:20:36.098Z,1.07
2023-05-11T03:23:04.870Z,0.80
2023-05-11T03:25:32.275Z,1.20
2023-05-11T03:28:02.453Z,0.73
2023-05-11T03:30:30.094Z,0.70
2023-05-11T03:32:57.506Z,0.90
2023-05-11T03:35:27.147Z,1.00
2023-05-11T03:37:56.534Z,0.80
2023-05-11T03:40:24.559Z,1.00
2023-05-11T03:42:53.410Z,1.13
2023-05-11T03:45:23.622Z,1.00
2023-05-11T03:47:52.391Z,1.10
2023-05-11T03:50:20.266Z,1.20
2023-05-11T03:52:48.098Z,1.23
2023-05-11T03:55:15.120Z,1.20
2023-05-11T03:57:43.048Z,1.20
2023-05-11T04:00:11.711Z,1.30
2023-05-11T04:02:41.347Z,1.20
2023-05-11T04:05:09.223Z,1.10
2023-05-11T04:07:37.685Z,0.80
2023-05-11T04:10:06.282Z,0.80
2023-05-11T04:12:33.265Z,1.00
2023-05-11T04:15:00.276Z,0.70
2023-05-11T04:17:27.194Z,0.80
2023-05-11T04:19:56.713Z,0.90
2023-05-11T04:22:23.636Z,0.90
2023-05-11T04:24:50.577Z,0.90
2023-05-11T04:27:17.490Z,0.73
2023-05-11T04:29:44.360Z,1.17
2023-05-11T04:32:11.323Z,0.73
2023-05-11T04:34:38.215Z,0.97
2023-05-11T04:37:07.772Z,1.23
2023-05-11T04:39:34.807Z,0.80
2023-05-11T04:42:01.745Z,0.80
2023-05-11T04:44:28.797Z,0.80
2023-05-11T04:46:56.662Z,1.00
2023-05-11T04:49:23.607Z,1.00
2023-05-11T04:51:50.553Z,1.10
2023-05-11T04:54:20.310Z,1.10
2023-05-11T04:56:47.263Z,1.00
2023-05-11T04:59:14.162Z,1.20
2023-05-11T05:01:41.120Z,1.13
2023-05-11T05:04:08.110Z,1.10
2023-05-11T05:06:35.047Z,1.10
2023-05-11T05:09:01.961Z,1.40
2023-05-11T05:11:31.452Z,1.53
2023-05-11T05:13:58.364Z,1.20
2023-05-11T05:16:25.249Z,1.20
2023-05-11T05:18:52.148Z,0.90
2023-05-11T05:21:19.109Z,0.83
2023-05-11T05:23:46.045Z,1.00
2023-05-11T05:26:12.976Z,1.03
2023-05-11T05:28:42.476Z,1.10
2023-05-11T05:31:09.402Z,0.83
2023-05-11T05:33:36.330Z,1.00
2023-05-11T05:36:03.607Z,1.50
2023-05-11T05:38:30.516Z,1.50
2023-05-11T05:40:57.435Z,0.90
2023-05-11T05:43:24.334Z,1.23
2023-05-11T05:45:53.909Z,1.10
2023-05-11T05:48:20.809Z,1.20
2023-05-11T05:50:47.726Z,1.43
2023-05-11T05:53:14.616Z,1.03
2023-05-11T05:55:41.515Z,1.70
2023-05-11T05:58:08.380Z,1.10
2023-05-11T06:00:35.629Z,1.17
2023-05-11T06:03:05.211Z,1.03
2023-05-11T06:05:32.187Z,1.10
2023-05-11T06:08:10.052Z,1.00
2023-05-11T06:10:38.315Z,0.90
2023-05-11T06:13:05.331Z,0.90
2023-05-11T06:15:32.249Z,1.10
2023-05-11T06:17:59.168Z,0.90
2023-05-11T06:20:28.734Z,1.00
2023-05-11T06:22:55.990Z,0.93
2023-05-11T06:25:23.050Z,1.10
2023-05-11T06:27:49.934Z,1.30
2023-05-11T06:30:17.024Z,1.00
2023-05-11T06:32:44.273Z,1.10
2023-05-11T06:35:11.311Z,0.80
2023-05-11T06:37:40.879Z,0.90
2023-05-11T06:40:09.542Z,1.00
2023-05-11T06:42:36.483Z,1.10
2023-05-11T06:45:03.814Z,1.10
2023-05-11T06:47:30.838Z,0.97
2023-05-11T06:49:57.839Z,1.10
2023-05-11T06:52:24.766Z,1.13
2023-05-11T06:54:54.248Z,1.00
2023-05-11T06:57:21.152Z,0.90
2023-05-11T06:59:48.068Z,1.20
2023-05-11T07:02:14.963Z,1.30
2023-05-11T07:04:41.924Z,1.10
2023-05-11T07:07:08.886Z,1.03
2023-05-11T07:09:35.774Z,1.10
2023-05-11T07:12:05.738Z,1.70
2023-05-11T07:14:32.664Z,1.00
2023-05-11T07:16:59.612Z,1.13
2023-05-11T07:19:26.516Z,1.30
2023-05-11T07:21:54.140Z,1.00
2023-05-11T07:24:21.028Z,1.00
2023-05-11T07:26:47.895Z,0.80
2023-05-11T07:29:17.406Z,1.30
2023-05-11T07:31:44.435Z,0.90
2023-05-11T07:34:11.456Z,1.20
2023-05-11T07:36:38.472Z,0.97
2023-05-11T07:39:05.495Z,0.93
2023-05-11T07:41:32.436Z,1.03
2023-05-11T07:44:00.556Z,0.97
2023-05-11T07:46:30.127Z,0.80
2023-05-11T07:49:11.269Z,0.90
2023-05-11T07:51:44.050Z,1.50
2023-05-11T07:54:10.969Z,1.03
2023-05-11T07:56:37.949Z,1.10
2023-05-11T07:59:04.832Z,0.90
2023-05-11T08:01:34.344Z,1.00
2023-05-11T08:04:01.243Z,1.17
2023-05-11T08:06:28.185Z,1.20
2023-05-11T08:08:55.127Z,1.10
2023-05-11T08:11:22.041Z,0.80
2023-05-11T08:13:48.929Z,0.80
2023-05-11T08:16:15.901Z,1.00
2023-05-11T08:18:45.419Z,1.07
2023-05-11T08:21:12.375Z,1.00
2023-05-11T08:23:39.250Z,1.00
2023-05-11T08:26:06.196Z,1.00
2023-05-11T08:28:33.078Z,1.10
2023-05-11T08:31:00.902Z,1.30
2023-05-11T08:36:00.204Z,1.13
2023-05-11T08:38:27.132Z,1.40
2023-05-11T08:40:54.519Z,1.43
2023-05-11T08:43:24.551Z,1.50
2023-05-11T08:45:57.324Z,1.33
2023-05-11T08:48:24.415Z,1.30
2023-05-11T08:50:51.462Z,1.23
2023-05-11T08:53:21.002Z,1.50
2023-05-11T08:55:48.302Z,1.23
2023-05-11T08:58:16.569Z,1.50
2023-05-11T09:00:44.279Z,1.63
2023-05-11T09:03:11.696Z,1.23
2023-05-11T09:05:39.704Z,1.30
2023-05-11T09:08:07.781Z,1.43
2023-05-11T09:10:37.314Z,1.43
2023-05-11T09:13:04.238Z,1.70
2023-05-11T09:15:37.004Z,1.70
2023-05-11T09:18:04.934Z,1.70
2023-05-11T09:20:33.719Z,1.47
2023-05-11T09:23:01.403Z,1.37
2023-05-11T09:25:32.494Z,1.40
2023-05-11T09:28:02.323Z,1.70
2023-05-11T09:30:29.260Z,1.63
2023-05-11T09:32:58.312Z,1.77
2023-05-11T09:35:27.335Z,2.00
2023-05-11T09:37:58.707Z,1.90
2023-05-11T09:40:27.605Z,1.80
2023-05-11T09:43:03.906Z,1.70
2023-05-11T09:45:38.934Z,1.73
2023-05-11T09:48:06.892Z,2.00
2023-05-11T09:50:34.556Z,2.03
2023-05-11T09:53:01.664Z,1.97
2023-05-11T09:55:28.881Z,2.00
2023-05-11T09:57:57.816Z,1.97
2023-05-11T10:00:27.533Z,2.33
2023-05-11T10:03:01.993Z,2.23
2023-05-11T10:05:30.324Z,2.30
2023-05-11T10:07:57.966Z,2.67
2023-05-11T10:10:26.928Z,2.50
2023-05-11T10:12:54.604Z,2.70
2023-05-11T10:15:27.046Z,2.70
2023-05-11T10:17:55.322Z,2.80
2023-05-11T10:20:22.649Z,2.53
2023-05-11T10:22:51.511Z,2.00
2023-05-11T10:25:19.751Z,2.47
2023-05-11T10:27:47.186Z,2.40
2023-05-11T10:30:14.693Z,2.23
2023-05-11T10:32:44.902Z,2.17
2023-05-11T10:35:12.302Z,2.23
2023-05-11T10:37:40.223Z,2.70
2023-05-11T10:40:08.914Z,2.90
2023-05-11T10:43:03.683Z,2.53
2023-05-11T10:45:34.638Z,2.90
2023-05-11T10:48:26.802Z,2.70
2023-05-11T10:51:26.242Z,2.93
2023-05-11T10:54:20.118Z,2.80
2023-05-11T10:56:59.302Z,2.87
2023-05-11T11:00:04.905Z,3.30
2023-05-11T11:02:32.007Z,3.40
2023-05-11T11:05:01.709Z,2.73
2023-05-11T11:07:28.682Z,2.93
2023-05-11T11:09:57.030Z,3.30
2023-05-11T11:12:24.910Z,3.00
2023-05-11T11:14:58.083Z,2.77
2023-05-11T11:17:26.745Z,3.07
2023-05-11T11:19:53.895Z,2.73
2023-05-11T11:22:47.717Z,3.27
2023-05-11T11:25:16.412Z,3.67
2023-05-11T11:27:57.459Z,3.90
2023-05-11T11:30:28.926Z,3.70
2023-05-11T11:33:16.739Z,3.60
2023-05-11T11:35:47.923Z,3.77
2023-05-11T11:38:16.849Z,3.47
2023-05-11T11:43:16.555Z,4.07
2023-05-11T11:45:51.326Z,4.37
2023-05-11T11:48:22.399Z,3.73
2023-05-11T11:51:02.939Z,4.30
2023-05-11T11:54:05.555Z,4.23
2023-05-11T11:56:45.672Z,3.53
2023-05-11T11:59:13.648Z,3.23
2023-05-11T12:01:41.684Z,3.47
2023-05-11T12:04:41.852Z,3.33
2023-05-11T12:07:13.090Z,3.73
2023-05-11T12:09:40.490Z,3.90
2023-05-11T12:12:08.868Z,3.97
2023-05-11T12:14:36.065Z,4.83
2023-05-11T12:17:05.012Z,4.47
2023-05-11T12:19:31.999Z,3.80
2023-05-11T12:21:59.021Z,4.43
2023-05-11T12:24:28.573Z,4.47
2023-05-11T12:26:56.425Z,4.70
2023-05-11T12:29:23.475Z,4.30
2023-05-11T12:31:50.491Z,3.87
2023-05-11T12:34:18.388Z,3.70
2023-05-11T12:36:46.500Z,3.70
2023-05-11T12:39:17.918Z,4.17
2023-05-11T12:41:48.355Z,4.37
2023-05-11T12:44:16.187Z,4.33
2023-05-11T12:46:44.309Z,4.60
2023-05-11T12:49:11.611Z,4.10
2023-05-11T12:51:49.374Z,4.23
2023-05-11T12:54:30.342Z,3.63
2023-05-11T12:57:00.659Z,3.53
2023-05-11T12:59:33.285Z,3.33
2023-05-11T13:02:08.311Z,3.37
2023-05-11T13:04:35.451Z,3.23
2023-05-11T13:07:02.444Z,3.23
2023-05-11T13:09:29.461Z,3.03
2023-05-11T13:12:15.934Z,3.13
2023-05-11T13:14:43.302Z,3.33
2023-05-11T13:17:10.348Z,3.67
2023-05-11T13:19:37.400Z,3.80
2023-05-11T13:22:04.788Z,3.43
2023-05-11T13:24:32.914Z,3.63
2023-05-11T13:27:01.353Z,3.77
2023-05-11T13:29:30.900Z,3.50
2023-05-11T13:31:57.934Z,3.23
2023-05-11T13:34:25.577Z,3.50
2023-05-11T13:36:52.491Z,3.23
2023-05-11T13:39:19.397Z,3.33
2023-05-11T13:41:46.452Z,3.00
2023-05-11T13:44:13.458Z,2.80
2023-05-11T13:46:43.132Z,3.00
2023-05-11T13:49:10.101Z,2.57
2023-05-11T13:51:37.029Z,2.67
2023-05-11T13:54:04.191Z,2.60
2023-05-11T13:56:31.670Z,2.73
2023-05-11T13:58:59.991Z,2.50
2023-05-11T14:01:27.541Z,2.50
2023-05-11T14:03:57.700Z,2.50
2023-05-11T14:06:25.705Z,2.83
2023-05-11T14:08:53.712Z,2.77
2023-05-11T14:11:20.839Z,2.60
2023-05-11T14:13:47.704Z,2.60
2023-05-11T14:16:14.700Z,2.50
2023-05-11T14:18:41.752Z,2.40
2023-05-11T14:21:11.450Z,2.47
2023-05-11T14:23:41.680Z,2.80
2023-05-11T14:26:10.865Z,2.30
2023-05-11T14:28:39.142Z,2.50
2023-05-11T14:31:06.159Z,2.20
2023-05-11T14:33:33.226Z,2.50
2023-05-11T14:36:00.212Z,3.00
2023-05-11T14:38:29.896Z,2.73
2023-05-11T14:40:56.810Z,2.97
2023-05-11T14:43:23.744Z,2.60
2023-05-11T14:45:58.128Z,2.67
2023-05-11T14:48:25.247Z,2.63
2023-05-11T14:50:52.312Z,2.87
2023-05-11T14:53:19.403Z,2.67
2023-05-11T14:55:49.170Z,2.53
2023-05-11T14:58:16.412Z,2.70
2023-05-11T15:00:43.100Z,2.33
2023-05-11T15:03:10.997Z,2.60
2023-05-11T15:05:38.308Z,2.20
2023-05-11T15:08:10.655Z,2.37
2023-05-11T15:10:45.601Z,2.60
2023-05-11T15:13:15.144Z,2.40
2023-05-11T15:15:42.085Z,2.50
2023-05-11T15:18:09.080Z,2.80
2023-05-11T15:20:36.134Z,3.07
2023-05-11T15:23:03.056Z,3.30
2023-05-11T15:25:29.961Z,2.93
2023-05-11T15:27:56.891Z,3.07
2023-05-11T15:30:26.836Z,3.10
2023-05-11T15:32:53.787Z,3.30
2023-05-11T15:35:21.219Z,3.37
2023-05-11T15:37:48.360Z,3.03
2023-05-11T15:40:15.453Z,3.33
2023-05-11T15:42:43.408Z,3.03
2023-05-11T15:45:10.522Z,2.73
2023-05-11T15:47:40.193Z,2.47
2023-05-11T15:50:07.936Z,2.73
2023-05-11T15:52:34.914Z,2.63
2023-05-11T15:55:01.921Z,2.90
2023-05-11T15:57:28.840Z,3.10
2023-05-11T15:59:55.756Z,2.80
2023-05-11T16:02:22.713Z,2.43
2023-05-11T16:04:52.751Z,2.83
2023-05-11T16:07:20.125Z,3.03
2023-05-11T16:09:47.039Z,3.07
2023-05-11T16:12:13.915Z,3.30
2023-05-11T16:14:40.873Z,3.33
2023-05-11T16:17:07.943Z,2.67
2023-05-11T16:19:34.881Z,3.33
2023-05-11T16:22:04.775Z,3.17
2023-05-11T16:24:34.198Z,3.00
2023-05-11T16:27:01.770Z,2.70
2023-05-11T16:29:28.731Z,3.03
2023-05-11T16:31:55.986Z,3.07
2023-05-11T16:34:22.930Z,2.90
2023-05-11T16:36:50.019Z,2.70
2023-05-11T16:39:19.555Z,2.70
2023-05-11T16:41:46.528Z,2.20
2023-05-11T16:44:13.462Z,1.97
2023-05-11T16:46:40.455Z,1.83
2023-05-11T16:49:07.436Z,2.10
2023-05-11T16:51:34.387Z,2.10
2023-05-11T16:54:01.356Z,2.00
2023-05-11T16:56:30.907Z,2.10
2023-05-11T16:58:57.872Z,1.80
2023-05-11T17:01:24.844Z,1.40
2023-05-11T17:03:51.919Z,1.50
2023-05-11T17:06:20.711Z,1.80
2023-05-11T17:08:47.991Z,2.10
2023-05-11T17:11:14.922Z,1.60
2023-05-11T17:13:44.496Z,1.60
2023-05-11T17:16:11.460Z,1.60
2023-05-11T17:18:38.440Z,1.67
2023-05-11T17:21:05.395Z,1.60
2023-05-11T17:23:32.402Z,1.73
2023-05-11T17:25:59.315Z,1.90
2023-05-11T17:28:26.298Z,1.73
2023-05-11T17:30:55.863Z,1.57
2023-05-11T17:33:22.844Z,1.70
2023-05-11T17:35:49.829Z,1.70
2023-05-11T17:38:16.804Z,1.90
2023-05-11T17:40:43.740Z,1.70
2023-05-11T17:43:10.622Z,1.87
2023-05-11T17:45:37.573Z,1.80
2023-05-11T17:48:07.271Z,1.60
2023-05-11T17:50:36.256Z,1.90
2023-05-11T17:53:03.175Z,1.60
2023-05-11T17:55:30.138Z,1.80
2023-05-11T17:57:57.096Z,1.77
2023-05-11T18:00:24.450Z,1.80
2023-05-11T18:02:51.437Z,1.90
2023-05-11T18:05:21.662Z,1.70
2023-05-11T18:07:50.364Z,2.00
2023-05-11T18:10:17.730Z,1.90
2023-05-11T18:12:44.982Z,1.97
2023-05-11T18:15:12.663Z,1.77
2023-05-11T18:17:39.607Z,2.10
2023-05-11T18:20:08.488Z,2.10
2023-05-11T18:22:38.207Z,2.10
2023-05-11T18:25:06.224Z,2.10
2023-05-11T18:27:33.239Z,1.90
2023-05-11T18:30:00.198Z,1.83
2023-05-11T18:32:27.203Z,2.13
2023-05-11T18:34:54.179Z,1.70
2023-05-11T18:37:21.118Z,2.03
2023-05-11T18:39:50.657Z,2.20
2023-05-11T18:42:17.662Z,2.20
2023-05-11T18:44:44.620Z,1.80
2023-05-11T18:47:11.606Z,2.30
2023-05-11T18:49:38.575Z,1.77
2023-05-11T18:52:05.836Z,1.93
2023-05-11T18:54:32.744Z,2.30
2023-05-11T18:57:02.256Z,2.50
2023-05-11T18:59:29.243Z,2.60
2023-05-11T19:01:56.208Z,2.33
2023-05-11T19:04:23.193Z,1.93
2023-05-11T19:06:50.165Z,2.10
2023-05-11T19:09:17.111Z,2.00
2023-05-11T19:11:44.087Z,2.20
2023-05-11T19:14:13.634Z,2.73
2023-05-11T19:16:40.672Z,2.63
2023-05-11T19:19:07.797Z,2.57
2023-05-11T19:21:34.767Z,3.07
2023-05-11T19:24:01.750Z,2.80
2023-05-11T19:26:28.695Z,2.80
2023-05-11T19:28:55.636Z,2.57
2023-05-11T19:31:25.807Z,2.80
2023-05-11T19:33:52.861Z,2.50
2023-05-11T19:36:25.891Z,2.67
2023-05-11T19:39:01.083Z,2.63
2023-05-11T19:41:28.073Z,2.83
2023-05-11T19:43:55.005Z,3.27
2023-05-11T19:46:24.794Z,2.80
2023-05-11T19:48:51.832Z,2.97
2023-05-11T19:51:18.732Z,3.00
2023-05-11T19:53:45.649Z,3.03
2023-05-11T19:56:12.676Z,3.03
2023-05-11T19:58:40.499Z,3.50
2023-05-11T20:01:07.530Z,3.33
2023-05-11T20:03:37.176Z,3.33
2023-05-11T20:06:04.249Z,2.90
2023-05-11T20:08:31.170Z,3.30
2023-05-11T20:10:58.096Z,2.73
2023-05-11T20:13:25.038Z,2.83
2023-05-11T20:15:57.146Z,2.80
2023-05-11T20:18:25.194Z,2.97
2023-05-11T20:20:56.130Z,2.90
2023-05-11T20:23:23.155Z,3.10
2023-05-11T20:25:50.193Z,2.80
2023-05-11T20:28:19.291Z,2.80
2023-05-11T20:30:46.310Z,3.33
2023-05-11T20:35:46.432Z,2.93
2023-05-11T20:38:19.090Z,3.37
2023-05-11T20:40:53.578Z,3.50
2023-05-11T20:43:20.690Z,3.60
2023-05-11T20:45:47.830Z,3.43
2023-05-11T20:48:14.870Z,3.70
2023-05-11T20:50:41.794Z,3.87
2023-05-11T20:53:08.740Z,3.10
2023-05-11T20:55:38.292Z,3.27
2023-05-11T20:58:05.194Z,3.07
2023-05-11T21:00:32.262Z,3.30
2023-05-11T21:02:59.333Z,3.03
2023-05-11T21:05:26.360Z,2.97
2023-05-11T21:07:53.259Z,3.10
2023-05-11T21:10:20.391Z,2.70
2023-05-11T21:12:50.123Z,2.67
2023-05-11T21:15:17.223Z,3.27
2023-05-11T21:17:44.174Z,2.67
2023-05-11T21:20:12.032Z,2.77
2023-05-11T21:22:39.101Z,2.73
2023-05-11T21:25:06.813Z,2.40
2023-05-11T21:27:33.744Z,2.80
2023-05-11T21:30:03.715Z,2.50
2023-05-11T21:32:30.694Z,2.80
2023-05-11T21:34:57.620Z,2.70
2023-05-11T21:37:24.590Z,2.30
2023-05-11T21:39:52.574Z,2.70
2023-05-11T21:42:19.489Z,2.37
2023-05-11T21:44:46.370Z,2.97
2023-05-11T21:47:15.897Z,2.40
2023-05-11T21:49:42.797Z,2.60
2023-05-11T21:52:09.725Z,2.63
2023-05-11T21:54:36.638Z,2.80
2023-05-11T21:57:03.876Z,2.70
2023-05-11T21:59:30.811Z,2.77
2023-05-11T22:01:57.749Z,2.40
2023-05-11T22:04:27.327Z,2.60
2023-05-11T22:06:55.319Z,2.70
2023-05-11T22:09:22.237Z,2.20
2023-05-11T22:11:49.160Z,2.63
2023-05-11T22:14:16.050Z,2.83
2023-05-11T22:16:43.009Z,2.17
2023-05-11T22:19:09.967Z,2.40
2023-05-11T22:21:39.512Z,2.60
2023-05-11T22:24:07.431Z,2.83
2023-05-11T22:26:34.376Z,2.17
2023-05-11T22:29:01.241Z,2.27
2023-05-11T22:31:28.241Z,2.37
2023-05-11T22:33:55.137Z,2.70
2023-05-11T22:36:22.022Z,2.83
2023-05-11T22:38:51.560Z,2.70
2023-05-11T22:41:18.481Z,2.70
2023-05-11T22:43:45.438Z,2.50
2023-05-11T22:46:12.316Z,2.60
2023-05-11T22:48:39.279Z,2.53
2023-05-11T22:51:06.185Z,2.30
2023-05-11T22:53:33.107Z,2.40
2023-05-11T22:56:06.947Z,2.50
2023-05-11T22:58:33.823Z,2.07
2023-05-11T23:01:00.982Z,2.27
2023-05-11T23:03:28.099Z,2.00
2023-05-11T23:05:55.181Z,2.27
2023-05-11T23:08:22.201Z,1.90
2023-05-11T23:10:49.756Z,2.07
2023-05-11T23:13:19.294Z,1.87
2023-05-11T23:15:46.274Z,2.00
2023-05-11T23:18:13.305Z,2.80
2023-05-11T23:20:40.290Z,2.20
2023-05-11T23:23:07.196Z,2.43
2023-05-11T23:25:34.103Z,2.37
2023-05-11T23:28:00.993Z,2.30
2023-05-11T23:30:30.532Z,2.20
2023-05-11T23:32:57.538Z,1.87
2023-05-11T23:35:24.513Z,2.13
2023-05-11T23:37:51.401Z,2.03
2023-05-11T23:40:18.443Z,1.70
2023-05-11T23:42:45.668Z,1.97
2023-05-11T23:45:12.769Z,1.40
2023-05-11T23:47:42.400Z,1.30
2023-05-11T23:50:09.734Z,1.10
2023-05-11T23:52:36.797Z,1.20
2023-05-11T23:55:04.044Z,0.90
2023-05-11T23:57:30.931Z,0.93
2023-05-11T23:59:57.855Z,1.00
